Time;durP1;ratioP1;P1;durP2;ratioP2;P2;SDS_P1;SDS_P2;PMS_P1;PMS_P2;Temp;Humidity;BMP_temperature;BMP_pressure;BME280_temperature;BME280_humidity;BME280_pressure;Samples;Min_cycle;Max_cycle;Signal;HPM_P1;HPM_P2
2024/02/21 00:01:47;;;;;;;0.10;0.10;;;;;;;9.71;78.24;100604.84;7392513;19;20006;-62
2024/02/21 00:04:12;;;;;;;0.10;0.10;;;;;;;9.72;78.29;100590.91;7384815;19;20457;-62
2024/02/21 00:06:38;;;;;;;0.05;0.05;;;;;;;9.75;78.72;100576.06;7395945;19;20502;-62
2024/02/21 00:09:03;;;;;;;0.10;0.10;;;;;;;9.77;78.72;100553.41;7393245;19;20027;-62
2024/02/21 00:11:28;;;;;;;0.10;0.10;;;;;;;9.75;78.17;100523.06;7399800;19;20066;-62
2024/02/21 00:13:54;;;;;;;0.10;0.10;;;;;;;9.83;78.35;100526.31;7392270;19;20020;-62
2024/02/21 00:16:19;;;;;;;0.10;0.10;;;;;;;9.83;78.54;100510.69;7396359;19;20031;-62
2024/02/21 00:18:45;;;;;;;0.10;0.10;;;;;;;9.86;78.68;100510.63;7399489;19;20007;-62
2024/02/21 00:21:17;;;;;;;0.10;0.10;;;;;;;9.87;78.14;100492.31;7395138;19;20002;-62
2024/02/21 00:23:43;;;;;;;0.10;0.10;;;;;;;9.90;78.41;100480.97;7396291;19;20014;-62
2024/02/21 00:26:08;;;;;;;0.10;0.10;;;;;;;9.91;78.04;100480.06;7396845;19;20758;-62
2024/02/21 00:28:34;;;;;;;0.10;0.10;;;;;;;9.94;78.27;100473.94;7400219;19;20014;-62
2024/02/21 00:30:59;;;;;;;0.10;0.10;;;;;;;9.95;77.83;100476.50;7388125;19;20010;-62
2024/02/21 00:33:25;;;;;;;0.10;0.10;;;;;;;9.96;77.72;100464.31;7389819;19;20490;-62
2024/02/21 00:35:50;;;;;;;0.10;0.10;;;;;;;9.98;77.68;100463.38;7398701;19;20006;-62
2024/02/21 00:38:15;;;;;;;0.10;0.10;;;;;;;9.99;77.90;100459.91;7393920;19;20102;-62
2024/02/21 00:40:42;;;;;;;0.10;0.10;;;;;;;10.01;77.63;100458.09;7397809;19;20011;-61
2024/02/21 00:43:07;;;;;;;0.10;0.10;;;;;;;10.03;77.46;100440.66;7394541;19;20089;-61
2024/02/21 00:45:33;;;;;;;0.10;0.10;;;;;;;10.04;77.25;100433.72;7399276;19;20679;-61
2024/02/21 00:47:59;;;;;;;0.10;0.10;;;;;;;10.01;76.83;100416.38;7388224;19;20016;-61
2024/02/21 00:50:24;;;;;;;0.10;0.10;;;;;;;10.05;77.25;100418.00;7395564;19;20034;-63
2024/02/21 00:52:49;;;;;;;0.05;0.05;;;;;;;10.07;77.31;100399.69;7394031;19;20427;-62
2024/02/21 00:55:15;;;;;;;0.10;0.10;;;;;;;10.09;76.99;100390.94;7378617;19;20039;-62
2024/02/21 00:57:40;;;;;;;0.10;0.10;;;;;;;10.10;77.25;100384.81;7356514;19;20042;-61
2024/02/21 01:00:07;;;;;;;0.10;0.10;;;;;;;10.11;77.09;100378.72;7369202;19;20019;-62
2024/02/21 01:02:33;;;;;;;0.10;0.10;;;;;;;10.12;77.47;100385.63;7366992;19;20011;-62
2024/02/21 01:04:58;;;;;;;0.10;0.10;;;;;;;10.03;77.05;100362.38;7368908;19;20022;-62
2024/02/21 01:07:24;;;;;;;0.10;0.10;;;;;;;10.17;77.38;100364.63;7363718;19;20007;-62
2024/02/21 01:09:51;;;;;;;0.10;0.10;;;;;;;10.22;77.02;100364.53;7368337;19;20018;-62
2024/02/21 01:12:16;;;;;;;0.10;0.10;;;;;;;10.09;77.18;100330.94;7367210;19;20018;-62
2024/02/21 01:14:42;;;;;;;0.10;0.10;;;;;;;10.23;77.02;100345.34;7369148;19;20663;-61
2024/02/21 01:17:07;;;;;;;0.10;0.10;;;;;;;10.32;76.98;100337.31;7364527;19;20090;-62
2024/02/21 01:19:33;;;;;;;0.10;0.10;;;;;;;10.21;77.54;100308.03;7369640;19;20514;-62
2024/02/21 01:21:58;;;;;;;0.10;0.10;;;;;;;10.39;77.03;100315.34;7365887;19;20018;-62
2024/02/21 01:24:24;;;;;;;0.10;0.10;;;;;;;10.43;77.45;100309.16;7363079;19;20018;-62
2024/02/21 01:26:49;;;;;;;0.10;0.10;;;;;;;10.46;76.73;100303.84;7358347;19;20006;-61
2024/02/21 01:29:15;;;;;;;0.10;0.10;;;;;;;10.50;77.60;100294.19;7369819;19;20010;-62
2024/02/21 01:31:40;;;;;;;0.10;0.10;;;;;;;10.55;77.05;100281.84;7360641;19;21085;-62
2024/02/21 01:34:06;;;;;;;0.10;0.10;;;;;;;10.58;77.24;100260.84;7366069;19;20754;-61
2024/02/21 01:36:31;;;;;;;0.00;0.00;;;;;;;10.62;77.50;100263.34;7364946;19;20015;-63
2024/02/21 01:38:56;;;;;;;0.10;0.10;;;;;;;10.67;77.68;100249.28;7368434;19;20132;-62
2024/02/21 01:41:22;;;;;;;0.10;0.10;;;;;;;10.71;77.66;100237.88;7367627;19;20470;-62
2024/02/21 01:43:47;;;;;;;0.10;0.10;;;;;;;10.70;77.31;100230.94;7362024;19;20006;-61
2024/02/21 01:46:13;;;;;;;0.10;0.10;;;;;;;10.78;77.29;100226.31;7365502;19;20019;-62
2024/02/21 01:48:38;;;;;;;0.10;0.10;;;;;;;10.79;77.29;100213.19;7368244;19;20022;-62
2024/02/21 01:51:04;;;;;;;0.10;0.10;;;;;;;10.83;77.16;100208.75;7365959;19;20399;-62
2024/02/21 01:53:35;;;;;;;0.10;0.10;;;;;;;10.86;77.13;100192.97;7368125;19;20470;-62
2024/02/21 01:56:01;;;;;;;0.10;0.10;;;;;;;10.87;77.11;100189.47;7363973;19;20781;-61
2024/02/21 01:58:28;;;;;;;0.10;0.10;;;;;;;10.89;77.44;100161.53;7367410;19;20007;-62
2024/02/21 02:00:56;;;;;;;0.10;0.10;;;;;;;10.88;76.77;100146.75;7364201;19;20011;-62
2024/02/21 02:03:21;;;;;;;;;;;;;;;10.95;77.93;100124.78;7360604;19;19999;-62
2024/02/21 02:05:48;;;;;;;0.10;0.10;;;;;;;10.92;76.87;100117.03;7359488;19;19929;-62
2024/02/21 02:08:15;;;;;;;0.10;0.10;;;;;;;10.94;77.07;100096.91;7364846;19;20024;-62
2024/02/21 02:10:41;;;;;;;0.10;0.10;;;;;;;10.93;77.22;100091.75;7359808;19;20119;-62
2024/02/21 02:13:07;;;;;;;0.10;0.10;;;;;;;10.93;76.80;100081.31;7367291;19;20122;-62
2024/02/21 02:15:41;;;;;;;0.10;0.10;;;;;;;10.94;76.90;100065.56;7366053;19;20010;-62
2024/02/21 02:18:07;;;;;;;0.10;0.10;;;;;;;10.89;76.88;100055.28;7365847;19;20034;-62
2024/02/21 02:20:33;;;;;;;0.10;0.10;;;;;;;10.91;76.82;100050.03;7365744;19;20019;-61
2024/02/21 02:23:07;;;;;;;0.10;0.10;;;;;;;10.84;77.21;100025.00;7366820;19;20014;-62
2024/02/21 02:25:32;;;;;;;0.10;0.10;;;;;;;10.89;76.64;100023.06;7360597;19;20839;-61
2024/02/21 02:27:58;;;;;;;0.10;0.10;;;;;;;10.80;77.71;100010.38;7367445;19;20010;-62
2024/02/21 02:30:23;;;;;;;0.10;0.10;;;;;;;10.89;77.45;100026.53;7363754;19;20017;-62
2024/02/21 02:32:48;;;;;;;0.10;0.10;;;;;;;10.88;77.32;100010.94;7364931;19;20014;-62
2024/02/21 02:35:14;;;;;;;0.10;0.10;;;;;;;10.88;77.10;100008.31;7364776;19;20038;-62
2024/02/21 02:37:39;;;;;;;0.10;0.10;;;;;;;10.87;77.24;99996.16;7364285;19;20003;-62
2024/02/21 02:40:08;;;;;;;0.10;0.10;;;;;;;10.87;77.59;99990.94;7367427;19;20019;-62
2024/02/21 02:42:33;;;;;;;0.10;0.10;;;;;;;10.82;77.66;99970.22;7362957;19;20110;-62
2024/02/21 02:44:59;;;;;;;0.10;0.10;;;;;;;10.81;77.41;99959.81;7365452;19;20094;-63
2024/02/21 02:47:24;;;;;;;0.10;0.10;;;;;;;10.83;77.83;99963.22;7368802;19;20018;-62
2024/02/21 02:49:50;;;;;;;0.10;0.10;;;;;;;10.56;77.83;99907.63;7363175;19;20422;-63
2024/02/21 02:52:19;;;;;;;0.10;0.10;;;;;;;10.79;77.69;99925.91;7366780;19;20091;-62
2024/02/21 02:54:45;;;;;;;0.10;0.10;;;;;;;10.75;78.11;99924.34;7366316;19;20018;-62
2024/02/21 02:57:11;;;;;;;0.10;0.10;;;;;;;10.74;78.36;99916.53;7363163;19;20017;-63
2024/02/21 02:59:36;;;;;;;0.10;0.10;;;;;;;10.71;78.17;99890.56;7359457;19;20018;-63
2024/02/21 03:02:02;;;;;;;0.10;0.10;;;;;;;10.69;78.56;99879.28;7365390;19;20099;-62
2024/02/21 03:04:27;;;;;;;0.10;0.10;;;;;;;10.67;78.69;99863.69;7361870;19;20583;-63
2024/02/21 03:06:53;;;;;;;0.10;0.10;;;;;;;10.64;78.42;99851.63;7358701;19;20020;-62
2024/02/21 03:09:18;;;;;;;0.10;0.10;;;;;;;10.63;78.60;99844.66;7365414;19;20014;-63
2024/02/21 03:11:44;;;;;;;0.10;0.10;;;;;;;10.63;78.99;99829.00;7360650;19;20010;-63
2024/02/21 03:14:10;;;;;;;0.10;0.10;;;;;;;10.61;79.14;99817.78;7360766;19;20011;-63
2024/02/21 03:16:36;;;;;;;0.10;0.10;;;;;;;10.61;79.25;99806.50;7365506;19;20010;-62
2024/02/21 03:19:01;;;;;;;0.05;0.05;;;;;;;10.60;79.02;99794.34;7362835;19;20628;-63
2024/02/21 03:21:27;;;;;;;0.10;0.10;;;;;;;10.59;79.15;99777.84;7349309;19;20769;-62
2024/02/21 03:23:52;;;;;;;0.10;0.10;;;;;;;10.59;79.08;99770.00;7364946;19;20498;-62
2024/02/21 03:26:17;;;;;;;0.10;0.10;;;;;;;10.46;79.11;99736.56;7343688;19;21230;-63
2024/02/21 03:28:46;;;;;;;0.10;0.10;;;;;;;10.59;79.40;99728.22;7363877;19;20033;-63
2024/02/21 03:31:13;;;;;;;0.10;0.10;;;;;;;10.57;79.41;99716.97;7353945;19;20477;-63
2024/02/21 03:33:39;;;;;;;0.10;0.10;;;;;;;10.56;79.41;99699.63;7364314;19;20021;-62
2024/02/21 03:36:05;;;;;;;0.10;0.10;;;;;;;10.55;79.23;99703.16;7361957;19;20401;-63
2024/02/21 03:38:31;;;;;;;0.10;0.10;;;;;;;10.53;79.57;99709.31;7361338;19;20010;-63
2024/02/21 03:40:56;;;;;;;0.10;0.10;;;;;;;10.54;79.58;99701.44;7362958;19;20016;-63
2024/02/21 03:43:21;;;;;;;0.10;0.10;;;;;;;10.54;79.85;99685.78;7355091;19;20014;-62
2024/02/21 03:45:47;;;;;;;0.10;0.10;;;;;;;10.55;79.55;99676.19;7362581;19;20018;-64
2024/02/21 03:48:13;;;;;;;0.10;0.10;;;;;;;10.55;79.69;99665.75;7364023;19;20014;-62
2024/02/21 03:50:39;;;;;;;0.10;0.10;;;;;;;10.51;79.24;99644.13;7355034;19;20727;-63
2024/02/21 04:31:57;;;;;;;0.10;0.10;;;;;;;10.49;79.74;99429.34;7376099;19;20763;-61
2024/02/21 04:34:22;;;;;;;0.10;0.10;;;;;;;10.57;79.81;99429.84;7371574;19;20034;-61
2024/02/21 04:36:48;;;;;;;0.10;0.10;;;;;;;10.59;79.91;99421.94;7369397;19;20019;-61
2024/02/21 04:39:13;;;;;;;0.10;0.10;;;;;;;10.61;80.03;99420.13;7370162;19;20132;-62
2024/02/21 04:41:38;;;;;;;0.10;0.10;;;;;;;10.62;79.83;99400.91;7371058;19;20022;-60
2024/02/21 04:44:04;;;;;;;0.10;0.10;;;;;;;10.65;80.02;99395.56;7367594;19;20033;-62
2024/02/21 04:46:29;;;;;;;0.10;0.10;;;;;;;10.65;80.28;99391.19;7364933;19;20011;-61
2024/02/21 04:48:56;;;;;;;0.10;0.10;;;;;;;10.68;80.29;99368.47;7369774;19;20007;-62
2024/02/21 04:51:21;;;;;;;0.10;0.10;;;;;;;10.70;80.37;99361.44;7369115;19;20832;-61
2024/02/21 04:53:47;;;;;;;0.10;0.10;;;;;;;10.73;80.11;99350.84;7369840;19;20133;-62
2024/02/21 04:56:12;;;;;;;0.10;0.10;;;;;;;10.75;80.33;99335.97;7365720;19;20024;-61
2024/02/21 04:58:39;;;;;;;0.10;0.10;;;;;;;10.77;80.24;99323.69;7369530;19;20070;-62
2024/02/21 05:01:04;;;;;;;0.10;0.10;;;;;;;10.78;80.46;99307.94;7371591;19;20457;-62
2024/02/21 05:03:30;;;;;;;0.10;0.10;;;;;;;10.79;80.52;99299.19;7368491;19;20034;-62
2024/02/21 05:05:56;;;;;;;0.10;0.10;;;;;;;10.83;80.09;99290.28;7368049;19;20018;-61
2024/02/21 05:08:21;;;;;;;0.10;0.10;;;;;;;10.85;80.33;99271.97;7365687;19;20011;-62
2024/02/21 05:10:46;;;;;;;0.10;0.10;;;;;;;10.88;80.08;99261.34;7367034;19;20025;-62
2024/02/21 05:13:12;;;;;;;0.10;0.10;;;;;;;10.87;80.32;99259.66;7371825;19;20014;-62
2024/02/21 05:15:37;;;;;;;0.10;0.10;;;;;;;10.91;80.56;99250.78;7368489;19;20492;-61
2024/02/21 05:18:03;;;;;;;0.10;0.10;;;;;;;10.92;80.51;99239.41;7370270;19;20014;-63
2024/02/21 05:20:28;;;;;;;0.20;0.20;;;;;;;10.94;80.54;99234.94;7368616;19;20017;-61
2024/02/21 05:22:54;;;;;;;0.20;0.20;;;;;;;10.95;80.56;99223.59;7369145;19;20060;-61
2024/02/21 05:25:19;;;;;;;0.10;0.10;;;;;;;10.97;80.62;99219.13;7368478;19;20048;-61
2024/02/21 05:27:45;;;;;;;0.10;0.10;;;;;;;10.99;80.59;99204.22;7368651;19;20026;-62
2024/02/21 05:30:12;;;;;;;0.10;0.10;;;;;;;10.91;80.50;99182.88;7369795;19;20014;-60
2024/02/21 05:32:37;;;;;;;0.10;0.10;;;;;;;11.00;80.60;99192.88;7364474;19;20010;-62
2024/02/21 05:35:03;;;;;;;0.10;0.10;;;;;;;11.04;80.50;99183.94;7370264;19;20018;-62
2024/02/21 05:37:28;;;;;;;0.10;0.10;;;;;;;10.95;80.69;99160.91;7367133;19;20731;-62
2024/02/21 05:39:54;;;;;;;0.10;0.10;;;;;;;11.08;80.60;99169.81;7358023;19;20490;-62
2024/02/21 05:42:19;;;;;;;0.10;0.10;;;;;;;11.11;80.84;99163.63;7364527;19;20018;-62
2024/02/21 05:44:45;;;;;;;0.10;0.10;;;;;;;11.12;80.64;99142.63;7367284;19;20418;-61
2024/02/21 05:47:12;;;;;;;0.10;0.10;;;;;;;11.14;81.12;99127.72;7368028;19;20391;-62
2024/02/21 05:49:37;;;;;;;0.10;0.10;;;;;;;11.18;80.80;99110.13;7365033;19;20089;-61
2024/02/21 05:52:03;;;;;;;0.10;0.10;;;;;;;11.18;81.01;99097.06;7367168;19;20058;-61
2024/02/21 05:54:28;;;;;;;0.10;0.10;;;;;;;11.22;81.01;99093.38;7365778;19;20018;-62
2024/02/21 05:56:54;;;;;;;0.10;0.10;;;;;;;11.24;80.74;99090.69;7357487;19;20017;-62
2024/02/21 05:59:19;;;;;;;0.10;0.10;;;;;;;11.27;80.85;99085.31;7366567;19;20018;-62
2024/02/21 06:01:45;;;;;;;0.10;0.10;;;;;;;11.28;80.75;99068.69;7360331;19;20011;-61
2024/02/21 06:04:10;;;;;;;0.10;0.10;;;;;;;11.31;81.11;99058.09;7365498;19;20022;-61
2024/02/21 07:31:51;;;;;;;0.10;0.10;;;;;;;12.69;80.15;98756.31;7369124;19;20022;-67
2024/02/21 07:34:17;;;;;;;0.10;0.10;;;;;;;12.69;80.27;98751.06;7364896;19;20011;-70
2024/02/21 07:36:44;;;;;;;0.10;0.10;;;;;;;12.72;80.32;98743.03;7362699;19;20078;-67
2024/02/21 07:39:09;;;;;;;0.10;0.10;;;;;;;12.75;80.08;98728.06;7365307;19;20014;-70
2024/02/21 07:41:35;;;;;;;0.10;0.10;;;;;;;12.76;79.94;98732.34;7361674;19;20028;-69
2024/02/21 07:44:00;;;;;;;0.10;0.10;;;;;;;12.79;79.84;98711.22;7357218;19;20762;-70
2024/02/21 07:46:26;;;;;;;0.10;0.10;;;;;;;12.80;80.30;98697.19;7360011;19;20010;-69
2024/02/21 07:48:51;;;;;;;0.13;0.13;;;;;;;12.84;79.94;98706.53;7361615;19;20051;-68
2024/02/21 07:51:18;;;;;;;0.10;0.10;;;;;;;12.86;79.78;98707.25;7366075;19;20020;-70
2024/02/21 07:53:45;;;;;;;0.10;0.10;;;;;;;12.88;79.96;98679.19;7362130;19;20049;-68
2024/02/21 07:56:11;;;;;;;0.10;0.10;;;;;;;12.90;80.09;98686.00;7363122;19;20014;-68
2024/02/21 07:58:37;;;;;;;0.13;0.13;;;;;;;12.92;80.28;98693.75;7359620;19;20348;-67
2024/02/21 08:01:02;;;;;;;0.10;0.10;;;;;;;12.93;79.97;98696.31;7360424;19;20021;-70
2024/02/21 08:03:28;;;;;;;0.10;0.10;;;;;;;12.99;80.04;98684.59;7357595;19;20014;-68
2024/02/21 08:05:53;;;;;;;0.20;0.20;;;;;;;13.00;79.96;98681.03;7370186;19;20014;-69
2024/02/21 08:08:20;;;;;;;0.10;0.10;;;;;;;13.02;79.90;98668.66;7369905;19;20066;-71
2024/02/21 08:10:46;;;;;;;0.20;0.20;;;;;;;13.00;79.69;98660.06;7371100;19;20014;-67
2024/02/21 08:13:11;;;;;;;0.20;0.20;;;;;;;13.05;79.81;98659.75;7368758;19;20466;-68
2024/02/21 08:15:39;;;;;;;0.20;0.20;;;;;;;13.08;80.12;98649.94;7369656;19;20032;-69
2024/02/21 08:18:05;;;;;;;0.10;0.10;;;;;;;13.10;80.02;98655.91;7371766;19;20031;-70
2024/02/21 08:20:30;;;;;;;0.10;0.10;;;;;;;13.12;79.80;98640.91;7371381;19;20010;-70
2024/02/21 08:22:56;;;;;;;0.20;0.20;;;;;;;13.12;79.89;98627.78;7366732;19;20011;-67
2024/02/21 08:25:21;;;;;;;0.10;0.10;;;;;;;13.17;80.04;98630.13;7367075;19;20018;-70
2024/02/21 08:27:46;;;;;;;0.10;0.10;;;;;;;13.18;79.64;98626.56;7365950;19;20011;-69
2024/02/21 08:30:12;;;;;;;0.10;0.10;;;;;;;13.21;80.07;98628.97;7365598;19;20010;-68
2024/02/21 08:36:38;;;;;;;0.10;0.10;;;;;;;13.28;79.73;98616.31;7401207;19;19986;-71
2024/02/21 08:39:04;;;;;;;0.17;0.17;;;;;;;13.26;79.80;98598.09;7366513;19;20011;-68
2024/02/21 08:41:33;;;;;;;0.13;0.13;;;;;;;13.31;79.48;98589.91;7371812;19;20025;-69
2024/02/21 08:43:59;;;;;;;0.10;0.10;;;;;;;13.29;79.69;98586.56;7369226;19;20087;-70
2024/02/21 08:46:24;;;;;;;0.10;0.10;;;;;;;13.30;79.83;98575.13;7371896;19;20069;-69
2024/02/21 08:48:51;;;;;;;0.10;0.10;;;;;;;13.34;79.62;98568.75;7368827;19;20017;-69
2024/02/21 08:51:17;;;;;;;0.10;0.10;;;;;;;13.35;79.48;98580.91;7366128;19;20014;-68
2024/02/21 08:53:43;;;;;;;0.10;0.10;;;;;;;13.27;79.77;98562.22;7370497;19;20010;-69
2024/02/21 08:56:09;;;;;;;0.10;0.10;;;;;;;13.43;79.96;98575.97;7370868;19;20025;-68
2024/02/21 08:58:36;;;;;;;0.20;0.20;;;;;;;13.45;80.01;98587.19;7371213;19;20010;-69
2024/02/21 09:01:03;;;;;;;0.10;0.10;;;;;;;13.49;80.09;98558.06;7370608;19;20877;-69
2024/02/21 09:03:31;;;;;;;0.10;0.10;;;;;;;13.52;79.86;98556.16;7362604;19;20021;-68
2024/02/21 09:05:56;;;;;;;0.10;0.10;;;;;;;13.58;79.97;98546.06;7367919;19;20800;-68
2024/02/21 09:08:22;;;;;;;0.10;0.10;;;;;;;13.62;80.01;98550.16;7370299;19;20014;-69
2024/02/21 09:10:48;;;;;;;0.10;0.10;;;;;;;13.62;79.65;98542.28;7365488;19;20021;-68
2024/02/21 09:13:13;;;;;;;0.10;0.10;;;;;;;13.66;79.60;98554.25;7371718;19;20009;-69
2024/02/21 09:15:38;;;;;;;0.20;0.20;;;;;;;13.69;79.84;98543.56;7365017;19;20739;-69
2024/02/21 09:18:04;;;;;;;0.20;0.20;;;;;;;13.59;79.77;98532.03;7368305;19;20094;-69
2024/02/21 09:20:29;;;;;;;0.10;0.10;;;;;;;13.79;79.59;98553.38;7368024;19;20013;-69
2024/02/21 09:22:55;;;;;;;0.15;0.15;;;;;;;13.74;79.41;98546.69;7369122;19;20015;-68
2024/02/21 09:25:20;;;;;;;0.10;0.10;;;;;;;13.90;79.52;98566.59;7363053;19;20052;-69
2024/02/21 09:27:45;;;;;;;0.00;0.00;;;;;;;13.89;79.49;98570.16;7366884;19;20015;-69
2024/02/21 09:30:11;;;;;;;0.10;0.10;;;;;;;13.94;79.24;98568.06;7365008;19;20038;-69
2024/02/21 09:32:38;;;;;;;0.10;0.10;;;;;;;13.99;79.42;98571.22;7364781;19;20017;-69
2024/02/21 09:35:05;;;;;;;0.10;0.10;;;;;;;14.02;79.21;98552.59;7365896;19;20564;-68
2024/02/21 09:37:31;;;;;;;0.10;0.10;;;;;;;14.04;79.38;98550.72;7368880;19;20414;-69
2024/02/21 09:39:56;;;;;;;0.10;0.10;;;;;;;14.01;79.33;98541.28;7369204;19;20014;-69
2024/02/21 09:42:39;;;;;;;0.10;0.10;;;;;;;14.23;79.71;98563.34;7367711;19;20018;-69
2024/02/21 09:45:09;;;;;;;0.10;0.10;;;;;;;14.33;79.49;98553.88;7360865;19;20336;-69
2024/02/21 09:47:50;;;;;;;0.10;0.10;;;;;;;14.43;79.74;98570.63;7368057;19;20014;-69
2024/02/21 09:50:17;;;;;;;0.20;0.20;;;;;;;14.48;79.07;98562.47;7363406;19;20018;-69
2024/02/21 09:52:43;;;;;;;0.17;0.17;;;;;;;14.54;78.89;98551.50;7369237;19;20006;-69
2024/02/21 09:55:11;;;;;;;0.10;0.10;;;;;;;14.57;78.84;98556.53;7366505;19;20027;-69
2024/02/21 09:57:38;;;;;;;0.10;0.10;;;;;;;14.59;78.90;98554.63;7360575;19;20010;-69
2024/02/21 10:00:08;;;;;;;0.10;0.10;;;;;;;14.56;78.86;98547.00;7367597;19;20039;-68
2024/02/21 10:02:34;;;;;;;0.10;0.10;;;;;;;14.59;78.80;98541.50;7369092;19;20011;-69
2024/02/21 10:04:59;;;;;;;0.10;0.10;;;;;;;14.59;78.98;98549.38;7365331;19;20014;-68
2024/02/21 10:07:25;;;;;;;0.10;0.10;;;;;;;14.60;79.14;98561.56;7362403;19;20007;-69
2024/02/21 10:10:03;;;;;;;0.10;0.10;;;;;;;14.64;79.02;98552.50;7368203;19;20092;-69
2024/02/21 10:12:29;;;;;;;0.10;0.10;;;;;;;14.63;78.76;98550.81;7366449;19;20014;-69
2024/02/21 10:15:05;;;;;;;0.10;0.10;;;;;;;14.68;78.81;98567.09;7362777;19;20014;-69
2024/02/21 10:17:32;;;;;;;0.10;0.10;;;;;;;14.68;78.95;98571.50;7364916;19;20791;-69
2024/02/21 10:20:09;;;;;;;0.10;0.10;;;;;;;14.75;79.12;98564.84;7366447;19;20764;-69
2024/02/21 10:22:36;;;;;;;0.10;0.10;;;;;;;14.74;79.30;98548.25;7366510;19;20018;-69
2024/02/21 10:25:12;;;;;;;0.10;0.10;;;;;;;14.79;79.22;98527.72;7361800;19;20732;-69
2024/02/21 10:27:41;;;;;;;0.10;0.10;;;;;;;14.87;79.36;98526.31;7357110;19;20018;-69
2024/02/21 10:30:13;;;;;;;0.10;0.10;;;;;;;14.89;79.15;98561.19;7360403;19;20034;-69
2024/02/21 10:32:52;;;;;;;0.20;0.20;;;;;;;14.92;78.81;98561.81;7365530;19;20014;-69
2024/02/21 10:35:28;;;;;;;0.10;0.10;;;;;;;14.93;78.82;98565.28;7362583;19;20030;-68
2024/02/21 10:37:56;;;;;;;0.10;0.10;;;;;;;14.91;79.06;98596.09;7366700;19;20048;-69
2024/02/21 10:40:26;;;;;;;0.10;0.10;;;;;;;14.94;78.97;98595.84;7363102;19;20738;-69
2024/02/21 10:42:59;;;;;;;0.10;0.10;;;;;;;14.98;79.19;98613.09;7358055;19;20035;-69
2024/02/21 10:45:35;;;;;;;0.20;0.20;;;;;;;14.97;78.85;98617.50;7364603;19;20617;-69
2024/02/21 10:48:25;;;;;;;0.17;0.17;;;;;;;15.00;78.90;98622.53;7365058;19;20010;-69
2024/02/21 10:51:01;;;;;;;0.10;0.10;;;;;;;14.97;78.74;98612.25;7365723;19;20688;-69
2024/02/21 10:53:52;;;;;;;0.10;0.10;;;;;;;14.99;79.00;98612.13;7366486;19;20066;-69
2024/02/21 10:56:20;;;;;;;0.10;0.10;;;;;;;14.97;78.82;98622.75;7359055;19;20018;-68
2024/02/21 10:58:46;;;;;;;0.10;0.10;;;;;;;14.97;78.89;98621.91;7363932;19;20010;-69
2024/02/21 11:01:14;;;;;;;0.08;0.08;;;;;;;14.95;78.91;98624.66;7365596;19;20016;-69
2024/02/21 11:03:43;;;;;;;0.10;0.10;;;;;;;14.97;79.13;98643.78;7360145;19;20014;-69
2024/02/21 11:06:10;;;;;;;0.10;0.10;;;;;;;14.86;79.18;98627.13;7362485;19;20144;-68
2024/02/21 11:08:35;;;;;;;;;;;;;;;15.03;78.70;98650.38;7368883;19;20401;-69
2024/02/21 11:11:01;;;;;;;0.10;0.10;;;;;;;14.97;78.82;98654.28;7361123;19;19918;-69
2024/02/21 11:13:35;;;;;;;0.10;0.10;;;;;;;14.95;78.67;98648.31;7365463;19;21121;-69
2024/02/21 11:16:09;;;;;;;0.10;0.10;;;;;;;14.92;78.84;98645.91;7366120;19;20493;-68
2024/02/21 11:18:35;;;;;;;0.10;0.10;;;;;;;14.97;78.73;98664.81;7364192;19;20777;-68
2024/02/21 11:21:01;;;;;;;0.10;0.10;;;;;;;15.03;78.89;98663.50;7358996;19;20027;-68
2024/02/21 11:23:27;;;;;;;0.10;0.10;;;;;;;14.97;78.76;98658.72;7364126;19;20015;-68
2024/02/21 11:25:52;;;;;;;0.10;0.10;;;;;;;15.07;78.56;98675.50;7359721;19;20831;-68
2024/02/21 11:28:25;;;;;;;0.10;0.10;;;;;;;15.08;77.97;98677.16;7361212;19;20105;-68
2024/02/21 11:30:51;;;;;;;0.20;0.20;;;;;;;14.97;77.40;98654.28;7356910;19;20041;-68
2024/02/21 11:33:16;;;;;;;0.10;0.10;;;;;;;15.00;77.72;98682.13;7358410;19;20011;-68
2024/02/21 11:35:42;;;;;;;0.10;0.10;;;;;;;14.95;78.27;98666.72;7364999;19;20006;-68
2024/02/21 11:38:17;;;;;;;0.10;0.10;;;;;;;15.01;78.25;98675.94;7366061;19;20094;-68
2024/02/21 11:40:46;;;;;;;0.10;0.10;;;;;;;14.97;77.64;98677.94;7364688;19;20407;-68
2024/02/21 11:43:12;;;;;;;0.10;0.10;;;;;;;14.91;77.83;98677.56;7357356;19;20007;-68
2024/02/21 11:45:39;;;;;;;0.10;0.10;;;;;;;14.88;78.29;98669.91;7363118;19;20790;-68
2024/02/21 11:48:06;;;;;;;0.10;0.10;;;;;;;14.84;77.90;98694.72;7362025;19;20010;-68
2024/02/21 11:50:31;;;;;;;0.10;0.10;;;;;;;14.73;77.75;98667.41;7364421;19;20031;-68
2024/02/21 11:52:58;;;;;;;0.10;0.10;;;;;;;14.75;78.28;98690.94;7362048;19;20870;-68
2024/02/21 11:55:23;;;;;;;0.20;0.20;;;;;;;14.76;78.48;98688.22;7361651;19;20388;-68
2024/02/21 11:57:49;;;;;;;0.10;0.10;;;;;;;14.78;78.61;98678.44;7361150;19;20010;-67
2024/02/21 12:00:21;;;;;;;0.10;0.10;;;;;;;14.89;79.49;98677.66;7360876;19;20027;-68
2024/02/21 12:02:47;;;;;;;0.10;0.10;;;;;;;14.98;79.37;98681.41;7363667;19;20765;-67
2024/02/21 12:05:14;;;;;;;0.10;0.10;;;;;;;15.01;79.38;98660.19;7362448;19;20011;-68
2024/02/21 12:07:40;;;;;;;0.10;0.10;;;;;;;15.30;79.20;98671.16;7357564;19;20038;-67
2024/02/21 12:10:12;;;;;;;0.15;0.15;;;;;;;15.65;79.55;98686.94;7363780;19;20070;-67
2024/02/21 12:12:39;;;;;;;0.10;0.10;;;;;;;15.90;79.16;98679.81;7364206;19;20006;-67
2024/02/21 12:15:05;;;;;;;0.10;0.10;;;;;;;16.23;78.41;98687.75;7362733;19;20022;-67
2024/02/21 12:17:36;;;;;;;0.10;0.10;;;;;;;16.56;77.61;98715.03;7363392;19;20677;-68
2024/02/21 12:20:05;;;;;;;0.10;0.10;;;;;;;16.83;77.12;98712.88;7365331;19;20010;-67
2024/02/21 12:22:32;;;;;;;0.10;0.10;;;;;;;16.98;76.39;98694.13;7361426;19;20006;-67
2024/02/21 12:24:58;;;;;;;0.10;0.10;;;;;;;17.42;75.88;98705.47;7361499;19;20025;-68
2024/02/21 12:27:25;;;;;;;0.10;0.10;;;;;;;17.70;75.26;98702.22;7335608;19;20006;-67
2024/02/21 12:29:50;;;;;;;0.10;0.10;;;;;;;17.84;74.50;98688.75;7363090;19;20475;-67
2024/02/21 12:32:15;;;;;;;0.00;0.00;;;;;;;18.17;74.24;98696.53;7357504;19;20022;-67
2024/02/21 12:34:41;;;;;;;0.15;0.15;;;;;;;18.33;72.73;98678.41;7360261;19;20010;-67
2024/02/21 12:37:07;;;;;;;0.10;0.10;;;;;;;18.52;73.11;98683.75;7362985;19;20833;-67
2024/02/21 12:39:32;;;;;;;0.10;0.10;;;;;;;18.74;71.76;98688.00;7359047;19;20003;-67
2024/02/21 12:41:58;;;;;;;0.10;0.10;;;;;;;18.82;71.00;98696.09;7362651;19;20086;-67
2024/02/21 12:44:23;;;;;;;0.10;0.10;;;;;;;19.03;70.96;98708.41;7356990;19;20002;-67
2024/02/21 12:46:51;;;;;;;0.10;0.10;;;;;;;19.18;71.17;98712.31;7361827;19;20959;-67
2024/02/21 12:49:18;;;;;;;0.10;0.10;;;;;;;19.31;71.01;98715.53;7361284;19;20025;-67
2024/02/21 12:51:43;;;;;;;0.10;0.10;;;;;;;19.35;70.29;98719.56;7366970;19;20086;-67
2024/02/21 12:54:11;;;;;;;0.10;0.10;;;;;;;19.47;70.62;98722.91;7369330;19;20519;-67
2024/02/21 12:56:36;;;;;;;0.10;0.10;;;;;;;19.64;70.36;98732.00;7370840;19;20025;-67
2024/02/21 12:59:02;;;;;;;0.10;0.10;;;;;;;19.59;69.63;98705.06;7366973;19;20007;-67
2024/02/21 13:01:27;;;;;;;0.10;0.10;;;;;;;19.86;69.13;98729.03;7370797;19;20021;-67
2024/02/21 13:03:54;;;;;;;0.13;0.13;;;;;;;19.86;68.84;98718.44;7368516;19;20011;-66
2024/02/21 13:06:19;;;;;;;0.10;0.10;;;;;;;19.99;67.20;98743.81;7367186;19;20033;-67
2024/02/21 13:08:45;;;;;;;0.10;0.10;;;;;;;19.87;68.83;98730.72;7372242;19;20090;-67
2024/02/21 13:11:12;;;;;;;0.10;0.10;;;;;;;20.11;68.30;98754.09;7367165;19;20015;-66
2024/02/21 13:13:38;;;;;;;0.17;0.17;;;;;;;19.98;68.67;98731.53;7367933;19;20026;-66
2024/02/21 13:16:03;;;;;;;0.10;0.10;;;;;;;20.25;70.19;98770.53;7370995;19;21082;-67
2024/02/21 13:18:29;;;;;;;0.10;0.10;;;;;;;20.24;66.84;98756.44;7368670;19;20415;-67
2024/02/21 13:20:54;;;;;;;0.10;0.10;;;;;;;20.20;67.88;98794.81;7370069;19;20018;-67
2024/02/21 13:23:23;;;;;;;0.10;0.10;;;;;;;20.02;66.67;98785.88;7366219;19;20018;-66
2024/02/21 13:25:49;;;;;;;0.10;0.10;;;;;;;19.75;65.71;98800.69;7368754;19;20014;-66
2024/02/21 13:28:16;;;;;;;0.10;0.10;;;;;;;19.43;66.01;98812.34;7364253;19;20046;-67
2024/02/21 13:30:42;;;;;;;0.10;0.10;;;;;;;19.10;66.92;98805.59;7369628;19;20014;-66
2024/02/21 13:33:07;;;;;;;0.10;0.10;;;;;;;18.73;69.02;98791.28;7368925;19;20090;-67
2024/02/21 13:35:33;;;;;;;0.10;0.10;;;;;;;18.69;70.65;98806.56;7366583;19;20018;-67
2024/02/21 13:37:58;;;;;;;0.10;0.10;;;;;;;18.62;70.04;98795.66;7369269;19;20018;-66